sensor_id;sensor_type;location;lat;lon;timestamp;pressure;altitude;pressure_sealevel;temperature;humidity
77303;BME280;66363;49.828;7.856;2023-05-10T00:01:54;99500.31;;;12.22;93.67
77303;BME280;66363;49.828;7.856;2023-05-10T00:04:20;99499.06;;;12.27;92.97
77303;BME280;66363;49.828;7.856;2023-05-10T00:06:45;99502.00;;;12.23;93.33
77303;BME280;66363;49.828;7.856;2023-05-10T00:09:11;99494.31;;;12.20;92.86
77303;BME280;66363;49.828;7.856;2023-05-10T00:11:38;99508.16;;;12.24;92.84
77303;BME280;66363;49.828;7.856;2023-05-10T00:14:04;99503.28;;;12.19;92.79
77303;BME280;66363;49.828;7.856;2023-05-10T00:16:29;99507.75;;;12.19;92.43
77303;BME280;66363;49.828;7.856;2023-05-10T00:18:55;99503.41;;;12.18;93.01
77303;BME280;66363;49.828;7.856;2023-05-10T00:21:21;99501.72;;;12.17;92.75
77303;BME280;66363;49.828;7.856;2023-05-10T00:23:46;99503.41;;;12.18;92.43
77303;BME280;66363;49.828;7.856;2023-05-10T00:26:12;99503.41;;;12.18;93.33
77303;BME280;66363;49.828;7.856;2023-05-10T00:28:39;99501.84;;;12.15;92.14
77303;BME280;66363;49.828;7.856;2023-05-10T00:31:05;99510.53;;;12.17;92.73
77303;BME280;66363;49.828;7.856;2023-05-10T00:33:30;99506.06;;;12.18;92.64
77303;BME280;66363;49.828;7.856;2023-05-10T00:35:56;99501.97;;;12.14;92.56
77303;BME280;66363;49.828;7.856;2023-05-10T00:38:21;99513.72;;;12.11;92.80
77303;BME280;66363;49.828;7.856;2023-05-10T00:40:47;99505.75;;;12.11;92.63
77303;BME280;66363;49.828;7.856;2023-05-10T00:43:13;99497.38;;;12.16;91.93
77303;BME280;66363;49.828;7.856;2023-05-10T00:45:40;99495.94;;;12.12;92.71
77303;BME280;66363;49.828;7.856;2023-05-10T00:48:06;99500.88;;;12.16;91.76
77303;BME280;66363;49.828;7.856;2023-05-10T00:50:32;99503.41;;;12.18;91.78
77303;BME280;66363;49.828;7.856;2023-05-10T00:52:58;99495.81;;;12.13;92.37
77303;BME280;66363;49.828;7.856;2023-05-10T00:55:24;99497.06;;;12.09;92.68
77303;BME280;66363;49.828;7.856;2023-05-10T00:57:50;99498.63;;;12.12;91.97
77303;BME280;66363;49.828;7.856;2023-05-10T01:00:16;99488.56;;;12.15;91.52
77303;BME280;66363;49.828;7.856;2023-05-10T01:02:43;99497.06;;;12.09;92.57
77303;BME280;66363;49.828;7.856;2023-05-10T01:05:08;99494.94;;;12.03;92.97
77303;BME280;66363;49.828;7.856;2023-05-10T01:07:34;99486.94;;;12.03;92.82
77303;BME280;66363;49.828;7.856;2023-05-10T01:10:00;99497.13;;;11.98;93.21
77303;BME280;66363;49.828;7.856;2023-05-10T01:12:25;99500.47;;;11.91;94.18
77303;BME280;66363;49.828;7.856;2023-05-10T01:14:51;99507.47;;;11.92;93.95
77303;BME280;66363;49.828;7.856;2023-05-10T01:17:17;99506.09;;;11.97;92.64
77303;BME280;66363;49.828;7.856;2023-05-10T01:19:44;99507.06;;;11.96;93.03
77303;BME280;66363;49.828;7.856;2023-05-10T01:22:25;99506.22;;;11.96;92.82
77303;BME280;66363;49.828;7.856;2023-05-10T01:25:14;99502.75;;;11.95;93.44
77303;BME280;66363;49.828;7.856;2023-05-10T01:28:12;99513.38;;;11.95;92.38
77303;BME280;66363;49.828;7.856;2023-05-10T01:31:06;99504.09;;;11.89;93.36
77303;BME280;66363;49.828;7.856;2023-05-10T01:33:39;99507.59;;;11.90;93.39
77303;BME280;66363;49.828;7.856;2023-05-10T01:36:12;99503.66;;;11.84;93.76
77303;BME280;66363;49.828;7.856;2023-05-10T01:38:43;99500.03;;;11.85;92.63
77303;BME280;66363;49.828;7.856;2023-05-10T01:41:13;99511.50;;;11.86;92.42
77303;BME280;66363;49.828;7.856;2023-05-10T01:43:48;99503.38;;;11.87;91.94
77303;BME280;66363;49.828;7.856;2023-05-10T01:46:19;99503.66;;;11.84;91.99
77303;BME280;66363;49.828;7.856;2023-05-10T01:48:51;99515.00;;;11.86;93.07
77303;BME280;66363;49.828;7.856;2023-05-10T01:51:22;99516.56;;;11.89;91.90
77303;BME280;66363;49.828;7.856;2023-05-10T01:53:49;99519.94;;;11.91;91.52
77303;BME280;66363;49.828;7.856;2023-05-10T01:56:20;99517.66;;;11.86;91.19
77303;BME280;66363;49.828;7.856;2023-05-10T01:58:50;99523.69;;;11.88;91.98
77303;BME280;66363;49.828;7.856;2023-05-10T02:01:20;99522.03;;;11.97;91.43
77303;BME280;66363;49.828;7.856;2023-05-10T02:03:49;99520.34;;;11.96;91.04
77303;BME280;66363;49.828;7.856;2023-05-10T02:06:16;99513.50;;;11.94;90.84
77303;BME280;66363;49.828;7.856;2023-05-10T02:08:45;99517.28;;;11.91;90.92
77303;BME280;66363;49.828;7.856;2023-05-10T02:11:13;99524.53;;;11.89;92.09
77303;BME280;66363;49.828;7.856;2023-05-10T02:13:39;99518.25;;;11.90;91.71
77303;BME280;66363;49.828;7.856;2023-05-10T02:16:07;99524.66;;;11.87;91.91
77303;BME280;66363;49.828;7.856;2023-05-10T02:18:33;99513.81;;;11.79;92.22
77303;BME280;66363;49.828;7.856;2023-05-10T02:21:02;99525.88;;;11.83;92.38
77303;BME280;66363;49.828;7.856;2023-05-10T02:23:29;99528.69;;;11.82;92.23
77303;BME280;66363;49.828;7.856;2023-05-10T02:25:57;99526.88;;;11.71;92.97
77303;BME280;66363;49.828;7.856;2023-05-10T02:28:26;99534.38;;;11.77;92.62
77303;BME280;66363;49.828;7.856;2023-05-10T02:30:53;99534.00;;;11.82;93.40
77303;BME280;66363;49.828;7.856;2023-05-10T02:33:19;99534.13;;;11.80;93.26
77303;BME280;66363;49.828;7.856;2023-05-10T02:35:46;99540.53;;;11.78;93.39
77303;BME280;66363;49.828;7.856;2023-05-10T02:38:15;99537.63;;;11.81;92.99
77303;BME280;66363;49.828;7.856;2023-05-10T02:40:41;99541.84;;;11.83;92.74
77303;BME280;66363;49.828;7.856;2023-05-10T02:43:12;99541.00;;;11.83;93.47
77303;BME280;66363;49.828;7.856;2023-05-10T02:45:38;99538.09;;;11.86;93.57
77303;BME280;66363;49.828;7.856;2023-05-10T02:48:05;99541.13;;;11.81;93.17
77303;BME280;66363;49.828;7.856;2023-05-10T02:50:33;99534.97;;;11.81;93.55
77303;BME280;66363;49.828;7.856;2023-05-10T02:53:01;99540.28;;;11.81;93.88
77303;BME280;66363;49.828;7.856;2023-05-10T02:55:35;99540.03;;;11.84;93.95
77303;BME280;66363;49.828;7.856;2023-05-10T02:58:02;99538.66;;;11.89;93.72
77303;BME280;66363;49.828;7.856;2023-05-10T03:00:28;99543.72;;;11.93;92.68
77303;BME280;66363;49.828;7.856;2023-05-10T03:02:54;99545.41;;;11.94;92.96
77303;BME280;66363;49.828;7.856;2023-05-10T03:05:20;99539.38;;;11.92;93.60
77303;BME280;66363;49.828;7.856;2023-05-10T03:07:46;99547.34;;;11.92;93.04
77303;BME280;66363;49.828;7.856;2023-05-10T03:10:12;99545.09;;;11.87;93.08
77303;BME280;66363;49.828;7.856;2023-05-10T03:12:50;99546.91;;;11.86;93.13
77303;BME280;66363;49.828;7.856;2023-05-10T03:15:22;99551.50;;;11.84;93.92
77303;BME280;66363;49.828;7.856;2023-05-10T03:17:55;99551.75;;;11.81;93.77
77303;BME280;66363;49.828;7.856;2023-05-10T03:20:25;99537.81;;;11.68;93.41
77303;BME280;66363;49.828;7.856;2023-05-10T03:22:55;99544.53;;;11.72;94.16
77303;BME280;66363;49.828;7.856;2023-05-10T03:25:26;99547.06;;;11.74;94.21
77303;BME280;66363;49.828;7.856;2023-05-10T03:27:53;99552.16;;;11.77;93.59
77303;BME280;66363;49.828;7.856;2023-05-10T03:30:19;99568.31;;;11.74;93.76
77303;BME280;66363;49.828;7.856;2023-05-10T03:32:45;99562.88;;;11.75;93.68
77303;BME280;66363;49.828;7.856;2023-05-10T03:35:12;99560.84;;;11.79;93.47
77303;BME280;66363;49.828;7.856;2023-05-10T03:37:37;99564.34;;;11.79;93.63
77303;BME280;66363;49.828;7.856;2023-05-10T03:40:04;99577.97;;;11.75;94.42
77303;BME280;66363;49.828;7.856;2023-05-10T03:42:30;99578.22;;;11.72;94.27
77303;BME280;66363;49.828;7.856;2023-05-10T03:44:57;99573.63;;;11.74;94.05
77303;BME280;66363;49.828;7.856;2023-05-10T03:47:23;99574.84;;;11.81;93.32
77303;BME280;66363;49.828;7.856;2023-05-10T03:49:48;99577.63;;;11.79;92.92
77303;BME280;66363;49.828;7.856;2023-05-10T03:52:14;99569.66;;;11.79;93.60
77303;BME280;66363;49.828;7.856;2023-05-10T03:54:40;99574.59;;;11.84;93.37
77303;BME280;66363;49.828;7.856;2023-05-10T03:57:05;99569.91;;;11.76;93.81
77303;BME280;66363;49.828;7.856;2023-05-10T03:59:31;99572.78;;;11.73;92.94
77303;BME280;66363;49.828;7.856;2023-05-10T04:01:58;99571.69;;;11.76;91.90
77303;BME280;66363;49.828;7.856;2023-05-10T04:04:23;99566.50;;;11.74;92.96
77303;BME280;66363;49.828;7.856;2023-05-10T04:06:49;99569.53;;;11.70;92.25
77303;BME280;66363;49.828;7.856;2023-05-10T04:09:15;99570.84;;;11.75;92.25
77303;BME280;66363;49.828;7.856;2023-05-10T04:11:40;99575.31;;;11.75;91.54
77303;BME280;66363;49.828;7.856;2023-05-10T04:14:06;99575.09;;;11.78;91.56
77303;BME280;66363;49.828;7.856;2023-05-10T04:16:32;99580.41;;;11.78;92.68
77303;BME280;66363;49.828;7.856;2023-05-10T04:18:59;99580.88;;;11.83;91.36
77303;BME280;66363;49.828;7.856;2023-05-10T04:21:24;99578.47;;;11.80;91.04
77303;BME280;66363;49.828;7.856;2023-05-10T04:23:50;99583.53;;;11.83;90.82
77303;BME280;66363;49.828;7.856;2023-05-10T04:26:15;99587.16;;;11.82;90.86
77303;BME280;66363;49.828;7.856;2023-05-10T04:28:41;99580.41;;;11.78;89.98
77303;BME280;66363;49.828;7.856;2023-05-10T04:31:08;99585.22;;;11.84;90.24
77303;BME280;66363;49.828;7.856;2023-05-10T04:33:35;99594.16;;;11.83;90.61
77303;BME280;66363;49.828;7.856;2023-05-10T04:36:03;99584.97;;;11.76;90.17
77303;BME280;66363;49.828;7.856;2023-05-10T04:38:29;99586.06;;;11.84;90.09
77303;BME280;66363;49.828;7.856;2023-05-10T04:40:55;99591.16;;;11.76;90.07
77303;BME280;66363;49.828;7.856;2023-05-10T04:43:28;99595.88;;;11.73;90.78
77303;BME280;66363;49.828;7.856;2023-05-10T04:45:56;99601.44;;;11.70;90.75
77303;BME280;66363;49.828;7.856;2023-05-10T04:48:21;99603.13;;;11.71;90.96
77303;BME280;66363;49.828;7.856;2023-05-10T04:50:47;99602.44;;;11.69;91.78
77303;BME280;66363;49.828;7.856;2023-05-10T04:53:14;99612.91;;;11.70;91.80
77303;BME280;66363;49.828;7.856;2023-05-10T04:55:40;99608.91;;;11.76;90.10
77303;BME280;66363;49.828;7.856;2023-05-10T04:58:05;99610.25;;;11.81;90.81
77303;BME280;66363;49.828;7.856;2023-05-10T05:00:31;99607.00;;;11.78;89.92
77303;BME280;66363;49.828;7.856;2023-05-10T05:02:58;99609.03;;;11.74;90.14
77303;BME280;66363;49.828;7.856;2023-05-10T05:05:24;99607.00;;;11.78;90.25
77303;BME280;66363;49.828;7.856;2023-05-10T05:07:49;99613.03;;;11.80;89.46
77303;BME280;66363;49.828;7.856;2023-05-10T05:10:16;99611.34;;;11.79;89.44
77303;BME280;66363;49.828;7.856;2023-05-10T05:12:42;99617.50;;;11.79;89.91
77303;BME280;66363;49.828;7.856;2023-05-10T05:15:08;99616.63;;;11.90;89.34
77303;BME280;66363;49.828;7.856;2023-05-10T05:17:34;99627.13;;;11.92;89.86
77303;BME280;66363;49.828;7.856;2023-05-10T05:20:00;99629.38;;;11.96;89.37
77303;BME280;66363;49.828;7.856;2023-05-10T05:22:25;99627.75;;;12.05;88.37
77303;BME280;66363;49.828;7.856;2023-05-10T05:24:51;99620.25;;;12.10;88.75
77303;BME280;66363;49.828;7.856;2023-05-10T05:27:18;99627.00;;;12.14;88.56
77303;BME280;66363;49.828;7.856;2023-05-10T05:29:44;99627.72;;;12.16;87.03
77303;BME280;66363;49.828;7.856;2023-05-10T05:32:09;99626.91;;;12.04;88.72
77303;BME280;66363;49.828;7.856;2023-05-10T05:34:35;99624.63;;;12.00;88.23
77303;BME280;66363;49.828;7.856;2023-05-10T05:37:00;99626.47;;;11.99;88.40
77303;BME280;66363;49.828;7.856;2023-05-10T05:39:26;99630.53;;;12.03;88.51
77303;BME280;66363;49.828;7.856;2023-05-10T05:41:51;99624.84;;;12.08;88.38
77303;BME280;66363;49.828;7.856;2023-05-10T05:44:19;99634.72;;;12.17;88.66
77303;BME280;66363;49.828;7.856;2023-05-10T05:46:44;99632.47;;;12.43;88.15
77303;BME280;66363;49.828;7.856;2023-05-10T05:49:10;99643.34;;;12.61;87.13
77303;BME280;66363;49.828;7.856;2023-05-10T05:51:35;99639.91;;;12.79;86.50
77303;BME280;66363;49.828;7.856;2023-05-10T05:54:01;99637.47;;;12.97;87.06
77303;BME280;66363;49.828;7.856;2023-05-10T05:56:27;99630.88;;;13.01;85.79
77303;BME280;66363;49.828;7.856;2023-05-10T05:58:52;99637.44;;;13.18;85.91
77303;BME280;66363;49.828;7.856;2023-05-10T06:01:20;99634.22;;;13.34;85.01
77303;BME280;66363;49.828;7.856;2023-05-10T06:03:45;99633.41;;;13.43;85.57
77303;BME280;66363;49.828;7.856;2023-05-10T06:06:11;99636.63;;;13.56;84.76
77303;BME280;66363;49.828;7.856;2023-05-10T06:08:36;99636.66;;;13.66;84.29
77303;BME280;66363;49.828;7.856;2023-05-10T06:11:02;99634.28;;;13.72;84.31
77303;BME280;66363;49.828;7.856;2023-05-10T06:13:27;99637.47;;;13.66;84.81
77303;BME280;66363;49.828;7.856;2023-05-10T06:15:53;99637.63;;;13.84;83.48
77303;BME280;66363;49.828;7.856;2023-05-10T06:18:20;99631.00;;;14.17;80.75
77303;BME280;66363;49.828;7.856;2023-05-10T06:20:45;99638.81;;;14.38;80.13
77303;BME280;66363;49.828;7.856;2023-05-10T06:23:11;99635.97;;;14.58;79.11
77303;BME280;66363;49.828;7.856;2023-05-10T06:25:37;99653.63;;;14.79;78.44
77303;BME280;66363;49.828;7.856;2023-05-10T06:28:02;99649.50;;;14.84;79.23
77303;BME280;66363;49.828;7.856;2023-05-10T06:30:28;99656.16;;;14.80;78.21
77303;BME280;66363;49.828;7.856;2023-05-10T06:32:54;99657.22;;;14.50;78.83
77303;BME280;66363;49.828;7.856;2023-05-10T06:35:21;99650.91;;;14.32;78.88
77303;BME280;66363;49.828;7.856;2023-05-10T06:37:46;99657.09;;;14.42;80.35
77303;BME280;66363;49.828;7.856;2023-05-10T06:40:12;99657.22;;;14.31;80.81
77303;BME280;66363;49.828;7.856;2023-05-10T06:42:38;99658.91;;;14.32;81.46
77303;BME280;66363;49.828;7.856;2023-05-10T06:45:05;99663.97;;;14.45;79.73
77303;BME280;66363;49.828;7.856;2023-05-10T06:47:30;99666.47;;;14.56;79.78
77303;BME280;66363;49.828;7.856;2023-05-10T06:49:56;99661.81;;;14.58;77.67
77303;BME280;66363;49.828;7.856;2023-05-10T06:52:23;99676.63;;;14.52;77.08
77303;BME280;66363;49.828;7.856;2023-05-10T06:54:49;99669.31;;;14.54;78.12
77303;BME280;66363;49.828;7.856;2023-05-10T06:57:14;99674.75;;;14.63;76.91
77303;BME280;66363;49.828;7.856;2023-05-10T06:59:40;99680.34;;;14.69;76.62
77303;BME280;66363;49.828;7.856;2023-05-10T07:02:05;99678.13;;;14.65;76.77
77303;BME280;66363;49.828;7.856;2023-05-10T07:04:31;99672.78;;;14.65;77.35
77303;BME280;66363;49.828;7.856;2023-05-10T07:06:57;99681.59;;;14.75;77.63
77303;BME280;66363;49.828;7.856;2023-05-10T07:09:24;99687.44;;;14.98;77.76
77303;BME280;66363;49.828;7.856;2023-05-10T07:11:49;99681.22;;;15.07;76.27
77303;BME280;66363;49.828;7.856;2023-05-10T07:14:15;99676.63;;;15.17;74.98
77303;BME280;66363;49.828;7.856;2023-05-10T07:16:40;99685.38;;;15.37;74.05
77303;BME280;66363;49.828;7.856;2023-05-10T07:19:06;99689.41;;;15.50;75.12
77303;BME280;66363;49.828;7.856;2023-05-10T07:21:32;99691.25;;;15.50;72.99
77303;BME280;66363;49.828;7.856;2023-05-10T07:23:57;99685.69;;;15.61;74.12
77303;BME280;66363;49.828;7.856;2023-05-10T07:26:24;99696.13;;;15.82;72.49
77303;BME280;66363;49.828;7.856;2023-05-10T07:28:50;99691.53;;;15.92;73.32
77303;BME280;66363;49.828;7.856;2023-05-10T07:31:15;99686.53;;;16.15;71.84
77303;BME280;66363;49.828;7.856;2023-05-10T07:33:41;99684.94;;;16.22;72.67
77303;BME280;66363;49.828;7.856;2023-05-10T07:36:07;99684.16;;;16.12;70.84
77303;BME280;66363;49.828;7.856;2023-05-10T07:38:32;99689.38;;;15.95;73.42
77303;BME280;66363;49.828;7.856;2023-05-10T07:40:58;99686.72;;;15.95;71.94
77303;BME280;66363;49.828;7.856;2023-05-10T07:43:25;99693.06;;;15.94;71.69
77303;BME280;66363;49.828;7.856;2023-05-10T07:45:50;99696.47;;;15.69;70.28
77303;BME280;66363;49.828;7.856;2023-05-10T07:48:16;99704.97;;;15.65;72.55
77303;BME280;66363;49.828;7.856;2023-05-10T07:50:42;99701.63;;;15.53;70.16
77303;BME280;66363;49.828;7.856;2023-05-10T07:53:07;99702.06;;;15.58;70.44
77303;BME280;66363;49.828;7.856;2023-05-10T07:55:33;99701.38;;;15.56;70.25
77303;BME280;66363;49.828;7.856;2023-05-10T07:57:58;99704.13;;;15.64;69.22
77303;BME280;66363;49.828;7.856;2023-05-10T08:00:25;99717.28;;;15.75;67.74
77303;BME280;66363;49.828;7.856;2023-05-10T08:02:51;99719.28;;;15.91;69.51
77303;BME280;66363;49.828;7.856;2023-05-10T08:05:17;99714.91;;;15.90;67.86
77303;BME280;66363;49.828;7.856;2023-05-10T08:07:42;99705.91;;;16.09;65.68
77303;BME280;66363;49.828;7.856;2023-05-10T08:10:09;99710.97;;;16.38;66.22
77303;BME280;66363;49.828;7.856;2023-05-10T08:12:34;99705.69;;;16.63;64.15
77303;BME280;66363;49.828;7.856;2023-05-10T08:15:00;99705.84;;;16.62;62.68
77303;BME280;66363;49.828;7.856;2023-05-10T08:17:27;99706.38;;;16.66;63.17
77303;BME280;66363;49.828;7.856;2023-05-10T08:19:53;99726.13;;;16.65;62.65
77303;BME280;66363;49.828;7.856;2023-05-10T08:22:18;99706.38;;;16.48;64.43
77303;BME280;66363;49.828;7.856;2023-05-10T08:24:44;99710.09;;;16.99;61.93
77303;BME280;66363;49.828;7.856;2023-05-10T08:27:10;99713.81;;;17.48;59.34
77303;BME280;66363;49.828;7.856;2023-05-10T08:29:35;99715.50;;;17.99;59.59
77303;BME280;66363;49.828;7.856;2023-05-10T08:32:01;99718.06;;;18.66;58.43
77303;BME280;66363;49.828;7.856;2023-05-10T08:34:28;99719.88;;;18.81;56.38
77303;BME280;66363;49.828;7.856;2023-05-10T08:36:54;99718.63;;;19.08;53.57
77303;BME280;66363;49.828;7.856;2023-05-10T08:39:19;99729.00;;;19.27;55.99
77303;BME280;66363;49.828;7.856;2023-05-10T08:41:45;99722.63;;;19.68;52.15
77303;BME280;66363;49.828;7.856;2023-05-10T08:44:12;99724.47;;;19.98;50.94
77303;BME280;66363;49.828;7.856;2023-05-10T08:46:41;99721.53;;;19.46;53.92
77303;BME280;66363;49.828;7.856;2023-05-10T08:49:12;99730.25;;;19.56;52.30
77303;BME280;66363;49.828;7.856;2023-05-10T08:51:40;99730.41;;;19.15;55.66
77303;BME280;66363;49.828;7.856;2023-05-10T08:54:09;99737.56;;;18.59;57.17
77303;BME280;66363;49.828;7.856;2023-05-10T08:56:36;99738.34;;;18.84;56.68
77303;BME280;66363;49.828;7.856;2023-05-10T08:59:01;99740.19;;;18.92;54.01
77303;BME280;66363;49.828;7.856;2023-05-10T09:01:27;99746.28;;;19.41;56.41
77303;BME280;66363;49.828;7.856;2023-05-10T09:03:53;99753.00;;;19.37;53.77
77303;BME280;66363;49.828;7.856;2023-05-10T09:06:19;99769.06;;;18.25;57.21
77303;BME280;66363;49.828;7.856;2023-05-10T09:08:46;99764.09;;;17.38;58.22
77303;BME280;66363;49.828;7.856;2023-05-10T09:11:12;99760.88;;;16.74;60.90
77303;BME280;66363;49.828;7.856;2023-05-10T09:13:39;99767.78;;;16.23;63.69
77303;BME280;66363;49.828;7.856;2023-05-10T09:16:05;99768.91;;;16.21;63.19
77303;BME280;66363;49.828;7.856;2023-05-10T09:18:31;99773.72;;;16.00;63.40
77303;BME280;66363;49.828;7.856;2023-05-10T09:20:56;99778.13;;;15.73;61.95
77303;BME280;66363;49.828;7.856;2023-05-10T09:23:22;99773.03;;;15.80;62.38
77303;BME280;66363;49.828;7.856;2023-05-10T09:26:01;99773.59;;;16.01;61.49
77303;BME280;66363;49.828;7.856;2023-05-10T09:28:27;99771.75;;;16.19;60.90
77303;BME280;66363;49.828;7.856;2023-05-10T09:30:56;99776.25;;;16.54;58.88
77303;BME280;66363;49.828;7.856;2023-05-10T09:33:22;99767.97;;;17.09;59.49
77303;BME280;66363;49.828;7.856;2023-05-10T09:35:51;99773.38;;;17.85;56.16
77303;BME280;66363;49.828;7.856;2023-05-10T09:38:17;99769.44;;;18.38;54.91
77303;BME280;66363;49.828;7.856;2023-05-10T09:40:52;99777.94;;;18.09;54.50
77303;BME280;66363;49.828;7.856;2023-05-10T09:43:18;99774.31;;;17.34;58.77
77303;BME280;66363;49.828;7.856;2023-05-10T09:45:47;99776.63;;;16.77;58.66
77303;BME280;66363;49.828;7.856;2023-05-10T09:48:13;99794.69;;;16.22;59.68
77303;BME280;66363;49.828;7.856;2023-05-10T09:50:39;99802.84;;;15.85;61.84
77303;BME280;66363;49.828;7.856;2023-05-10T09:53:05;99804.59;;;15.76;62.20
77303;BME280;66363;49.828;7.856;2023-05-10T09:55:39;99813.50;;;15.67;61.76
77303;BME280;66363;49.828;7.856;2023-05-10T09:58:07;99812.22;;;15.71;59.10
77303;BME280;66363;49.828;7.856;2023-05-10T10:00:35;99812.34;;;15.97;60.78
77303;BME280;66363;49.828;7.856;2023-05-10T10:03:01;99809.09;;;16.74;57.16
77303;BME280;66363;49.828;7.856;2023-05-10T10:05:30;99804.00;;;18.49;55.96
77303;BME280;66363;49.828;7.856;2023-05-10T10:07:57;99819.97;;;20.72;47.70
77303;BME280;66363;49.828;7.856;2023-05-10T10:10:24;99804.78;;;21.46;45.29
77303;BME280;66363;49.828;7.856;2023-05-10T10:12:49;99792.91;;;22.70;40.23
77303;BME280;66363;49.828;7.856;2023-05-10T10:15:16;99792.66;;;22.22;42.76
77303;BME280;66363;49.828;7.856;2023-05-10T10:17:43;99794.53;;;22.64;40.46
77303;BME280;66363;49.828;7.856;2023-05-10T10:20:09;99795.00;;;22.47;39.36
77303;BME280;66363;49.828;7.856;2023-05-10T10:22:36;99792.47;;;22.88;39.00
77303;BME280;66363;49.828;7.856;2023-05-10T10:25:02;99792.75;;;22.50;37.95
77303;BME280;66363;49.828;7.856;2023-05-10T10:27:37;99785.41;;;23.49;39.78
77303;BME280;66363;49.828;7.856;2023-05-10T10:30:16;99784.19;;;23.52;37.75
77303;BME280;66363;49.828;7.856;2023-05-10T10:33:01;99792.16;;;22.55;38.49
77303;BME280;66363;49.828;7.856;2023-05-10T10:35:34;99786.91;;;21.45;40.89
77303;BME280;66363;49.828;7.856;2023-05-10T10:38:00;99796.03;;;20.92;45.57
77303;BME280;66363;49.828;7.856;2023-05-10T10:40:26;99801.00;;;20.34;45.60
77303;BME280;66363;49.828;7.856;2023-05-10T10:42:52;99792.09;;;20.03;46.29
77303;BME280;66363;49.828;7.856;2023-05-10T10:45:18;99791.63;;;19.69;46.76
77303;BME280;66363;49.828;7.856;2023-05-10T10:47:44;99793.19;;;19.39;47.85
77303;BME280;66363;49.828;7.856;2023-05-10T10:50:11;99790.59;;;19.06;49.90
77303;BME280;66363;49.828;7.856;2023-05-10T10:52:38;99788.94;;;18.73;49.74
77303;BME280;66363;49.828;7.856;2023-05-10T10:55:06;99783.84;;;18.29;50.67
77303;BME280;66363;49.828;7.856;2023-05-10T10:57:33;99796.41;;;18.20;52.18
77303;BME280;66363;49.828;7.856;2023-05-10T11:00:20;99803.47;;;18.13;51.51
77303;BME280;66363;49.828;7.856;2023-05-10T11:02:49;99794.25;;;18.24;51.52
77303;BME280;66363;49.828;7.856;2023-05-10T11:05:37;99791.13;;;18.61;50.73
77303;BME280;66363;49.828;7.856;2023-05-10T11:08:16;99799.81;;;18.47;52.11
77303;BME280;66363;49.828;7.856;2023-05-10T11:10:53;99806.75;;;17.83;53.76
77303;BME280;66363;49.828;7.856;2023-05-10T11:13:27;99817.75;;;17.38;54.72
77303;BME280;66363;49.828;7.856;2023-05-10T11:15:54;99823.34;;;16.75;56.04
77303;BME280;66363;49.828;7.856;2023-05-10T11:18:21;99822.31;;;16.22;60.26
77303;BME280;66363;49.828;7.856;2023-05-10T11:20:56;99819.19;;;15.82;60.43
77303;BME280;66363;49.828;7.856;2023-05-10T11:23:22;99831.66;;;15.64;62.21
77303;BME280;66363;49.828;7.856;2023-05-10T11:25:49;99821.16;;;15.43;62.16
77303;BME280;66363;49.828;7.856;2023-05-10T11:28:17;99825.09;;;15.48;62.41
77303;BME280;66363;49.828;7.856;2023-05-10T11:30:44;99821.19;;;15.33;63.20
77303;BME280;66363;49.828;7.856;2023-05-10T11:33:14;99833.75;;;15.33;64.38
77303;BME280;66363;49.828;7.856;2023-05-10T11:35:40;99830.88;;;15.44;64.38
77303;BME280;66363;49.828;7.856;2023-05-10T11:38:07;99827.06;;;15.46;63.45
77303;BME280;66363;49.828;7.856;2023-05-10T11:40:33;99831.13;;;15.50;62.90
77303;BME280;66363;49.828;7.856;2023-05-10T11:42:59;99832.81;;;15.51;62.78
77303;BME280;66363;49.828;7.856;2023-05-10T11:45:25;99823.97;;;15.51;62.93
77303;BME280;66363;49.828;7.856;2023-05-10T11:47:51;99828.16;;;15.63;63.40
77303;BME280;66363;49.828;7.856;2023-05-10T11:50:17;99828.94;;;15.73;62.54
77303;BME280;66363;49.828;7.856;2023-05-10T11:52:43;99825.06;;;15.85;63.99
77303;BME280;66363;49.828;7.856;2023-05-10T11:55:10;99823.63;;;15.91;62.30
77303;BME280;66363;49.828;7.856;2023-05-10T11:57:37;99825.19;;;15.93;61.99
77303;BME280;66363;49.828;7.856;2023-05-10T12:00:03;99825.72;;;15.97;62.32
77303;BME280;66363;49.828;7.856;2023-05-10T12:02:29;99823.28;;;16.04;62.81
77303;BME280;66363;49.828;7.856;2023-05-10T12:04:55;99828.72;;;16.12;61.35
77303;BME280;66363;49.828;7.856;2023-05-10T12:07:21;99831.91;;;15.98;62.33
77303;BME280;66363;49.828;7.856;2023-05-10T12:10:05;99837.41;;;15.96;62.24
77303;BME280;66363;49.828;7.856;2023-05-10T12:12:37;99836.88;;;15.92;63.28
77303;BME280;66363;49.828;7.856;2023-05-10T12:15:03;99830.94;;;15.99;64.05
77303;BME280;66363;49.828;7.856;2023-05-10T12:17:29;99831.38;;;15.94;64.42
77303;BME280;66363;49.828;7.856;2023-05-10T12:19:59;99830.38;;;15.95;62.56
77303;BME280;66363;49.828;7.856;2023-05-10T12:22:24;99828.09;;;16.00;62.46
77303;BME280;66363;49.828;7.856;2023-05-10T12:24:50;99825.28;;;16.02;62.53
77303;BME280;66363;49.828;7.856;2023-05-10T12:27:16;99828.50;;;16.05;63.18
77303;BME280;66363;49.828;7.856;2023-05-10T12:29:43;99826.22;;;16.10;64.33
77303;BME280;66363;49.828;7.856;2023-05-10T12:32:08;99830.56;;;16.11;63.67
77303;BME280;66363;49.828;7.856;2023-05-10T12:34:35;99833.91;;;16.13;63.37
77303;BME280;66363;49.828;7.856;2023-05-10T12:37:01;99828.91;;;16.10;64.29
77303;BME280;66363;49.828;7.856;2023-05-10T12:39:38;99832.25;;;16.12;64.11
77303;BME280;66363;49.828;7.856;2023-05-10T12:42:04;99830.03;;;16.08;63.30
77303;BME280;66363;49.828;7.856;2023-05-10T12:44:30;99835.38;;;16.08;63.61
77303;BME280;66363;49.828;7.856;2023-05-10T12:46:57;99838.44;;;16.13;64.20
77303;BME280;66363;49.828;7.856;2023-05-10T12:49:23;99837.59;;;16.12;63.42
77303;BME280;66363;49.828;7.856;2023-05-10T12:51:48;99826.72;;;16.14;64.12
77303;BME280;66363;49.828;7.856;2023-05-10T12:54:14;99828.66;;;16.21;63.69
77303;BME280;66363;49.828;7.856;2023-05-10T12:56:39;99824.78;;;16.34;61.64
77303;BME280;66363;49.828;7.856;2023-05-10T12:59:05;99823.63;;;16.54;60.42
77303;BME280;66363;49.828;7.856;2023-05-10T13:01:31;99821.56;;;16.66;59.21